Wetterdaten: Woche 06.08.12 - 12.08.12 (KW32)
Datum Zeit Temp. A. Feuchte A. Luftdruck Regen Wind Richtung Taupunkt Windchill Windben
06.08.2012 00:00 22,7 C 77 % 1008,5 hPa 0,0 l/m 0,1 km/h N 18,5 C 22,7 C 2,0 km/h
06.08.2012 01:00 22,5 C 76 % 1008,8 hPa 0,0 l/m 0,0 km/h N 18,2 C 22,5 C 0,0 km/h
06.08.2012 02:00 21,4 C 80 % 1009,0 hPa 0,0 l/m 0,0 km/h N 17,7 C 21,4 C 0,8 km/h
06.08.2012 03:00 20,5 C 81 % 1009,0 hPa 0,0 l/m 0,0 km/h N 17,1 C 20,5 C 2,0 km/h
06.08.2012 04:00 20,0 C 81 % 1008,9 hPa 0,0 l/m 0,1 km/h N 16,5 C 20,0 C 2,4 km/h
06.08.2012 05:00 19,6 C 80 % 1008,6 hPa 0,0 l/m 0,0 km/h N 16,1 C 19,6 C 0,4 km/h
06.08.2012 06:00 19,3 C 79 % 1008,8 hPa 0,0 l/m 0,0 km/h N 15,5 C 19,3 C 0,0 km/h
06.08.2012 07:00 20,4 C 77 % 1008,8 hPa 0,0 l/m 0,3 km/h N 16,1 C 20,4 C 2,8 km/h
06.08.2012 08:00 23,5 C 78 % 1009,0 hPa 0,0 l/m 0,0 km/h N 19,5 C 23,5 C 2,0 km/h
06.08.2012 09:00 27,4 C 68 % 1008,9 hPa 0,0 l/m 0,4 km/h N 21,0 C 27,4 C 4,0 km/h
06.08.2012 10:00 28,7 C 64 % 1009,6 hPa 0,0 l/m 0,9 km/h N 21,1 C 28,7 C 7,2 km/h
06.08.2012 11:00 29,4 C 56 % 1009,6 hPa 0,0 l/m 6,3 km/h N 19,6 C 29,4 C 18,1 km/h
06.08.2012 12:00 30,0 C 53 % 1009,8 hPa 0,0 l/m 7,1 km/h N 19,3 C 30,0 C 19,7 km/h
06.08.2012 13:00 30,2 C 54 % 1009,9 hPa 0,0 l/m 6,9 km/h N 19,8 C 30,1 C 19,7 km/h
06.08.2012 14:00 30,7 C 54 % 1009,8 hPa 0,0 l/m 5,1 km/h N 20,2 C 30,7 C 14,5 km/h
06.08.2012 15:00 30,9 C 52 % 1009,5 hPa 0,0 l/m 5,2 km/h N 19,9 C 30,9 C 13,7 km/h
06.08.2012 16:00 30,7 C 55 % 1009,0 hPa 0,0 l/m 3,5 km/h N 20,4 C 30,7 C 11,7 km/h
06.08.2012 17:00 30,8 C 55 % 1008,3 hPa 0,0 l/m 2,0 km/h N 20,5 C 30,8 C 8,0 km/h
06.08.2012 18:00 31,5 C 54 % 1007,8 hPa 0,0 l/m 0,4 km/h N 20,9 C 31,5 C 4,4 km/h
06.08.2012 19:00 31,2 C 57 % 1006,8 hPa 0,0 l/m 0,0 km/h N 21,7 C 31,2 C 0,4 km/h
06.08.2012 20:00 29,1 C 65 % 1005,9 hPa 0,0 l/m 0,1 km/h N 21,8 C 29,1 C 1,6 km/h
06.08.2012 21:00 26,2 C 62 % 1008,5 hPa 0,0 l/m 10,9 km/h N 18,3 C 25,1 C 35,8 km/h
06.08.2012 22:00 23,4 C 68 % 1011,0 hPa 0,0 l/m 19,2 km/h N 17,2 C 20,7 C 44,7 km/h
06.08.2012 23:00 21,1 C 74 % 1013,9 hPa 0,0 l/m 23,3 km/h N 16,2 C 17,2 C 49,1 km/h
07.08.2012 00:00 20,2 C 75 % 1015,3 hPa 0,0 l/m 16,3 km/h N 15,6 C 17,2 C 37,8 km/h
07.08.2012 01:00 20,1 C 71 % 1016,7 hPa 0,0 l/m 10,9 km/h N 14,7 C 18,5 C 31,4 km/h
07.08.2012 02:00 20,0 C 71 % 1017,3 hPa 0,0 l/m 9,4 km/h N 14,6 C 18,8 C 27,3 km/h
07.08.2012 03:00 19,8 C 71 % 1017,2 hPa 0,0 l/m 10,1 km/h N 14,4 C 18,4 C 26,5 km/h
07.08.2012 04:00 19,2 C 68 % 1017,1 hPa 0,0 l/m 18,4 km/h N 13,2 C 15,6 C 39,4 km/h
07.08.2012 05:00 18,1 C 72 % 1017,8 hPa 0,0 l/m 19,5 km/h N 12,8 C 14,0 C 47,0 km/h
07.08.2012 06:00 17,8 C 70 % 1018,8 hPa 0,0 l/m 8,9 km/h N 12,3 C 16,7 C 32,6 km/h
07.08.2012 07:00 17,9 C 69 % 1019,7 hPa 0,0 l/m 7,9 km/h N 12,2 C 17,2 C 27,4 km/h
07.08.2012 08:00 18,8 C 66 % 1020,2 hPa 0,0 l/m 7,7 km/h N 12,2 C 18,2 C 30,6 km/h
07.08.2012 09:00 20,0 C 63 % 1020,9 hPa 0,0 l/m 4,6 km/h N 12,8 C 19,9 C 19,7 km/h
07.08.2012 10:00 20,3 C 62 % 1021,5 hPa 0,0 l/m 4,8 km/h N 12,9 C 20,3 C 22,1 km/h
07.08.2012 11:00 21,4 C 59 % 1021,4 hPa 0,0 l/m 4,1 km/h N 13,0 C 21,4 C 25,7 km/h
07.08.2012 12:00 22,3 C 56 % 1021,2 hPa 0,0 l/m 2,1 km/h N 13,0 C 22,3 C 27,4 km/h
07.08.2012 13:00 23,6 C 54 % 1021,0 hPa 0,0 l/m 1,0 km/h N 13,9 C 23,6 C 23,3 km/h
07.08.2012 14:00 24,5 C 51 % 1020,8 hPa 0,0 l/m 0,6 km/h N 13,8 C 24,5 C 22,1 km/h
07.08.2012 15:00 24,4 C 50 % 1020,7 hPa 0,0 l/m 1,0 km/h N 13,1 C 24,4 C 12,9 km/h
07.08.2012 16:00 24,6 C 50 % 1020,5 hPa 0,0 l/m 0,6 km/h N 13,3 C 24,6 C 8,5 km/h
07.08.2012 17:00 24,0 C 51 % 1020,2 hPa 0,0 l/m 3,3 km/h N 13,2 C 24,0 C 12,5 km/h
07.08.2012 18:00 23,9 C 52 % 1019,9 hPa 0,0 l/m 1,9 km/h N 13,3 C 23,9 C 10,5 km/h
07.08.2012 19:00 23,5 C 52 % 1019,8 hPa 0,0 l/m 2,2 km/h N 13,0 C 23,5 C 9,3 km/h
07.08.2012 20:00 22,7 C 56 % 1020,2 hPa 0,0 l/m 0,1 km/h N 13,5 C 22,7 C 1,6 km/h
07.08.2012 21:00 21,4 C 61 % 1020,6 hPa 0,0 l/m 0,0 km/h N 13,6 C 21,4 C 0,8 km/h
07.08.2012 22:00 20,7 C 64 % 1020,7 hPa 0,0 l/m 0,3 km/h N 13,7 C 20,7 C 3,2 km/h
07.08.2012 23:00 22,0 C 58 % 1020,7 hPa 0,0 l/m 3,0 km/h N 13,2 C 22,0 C 9,7 km/h
08.08.2012 00:00 22,2 C 56 % 1020,7 hPa 0,0 l/m 3,5 km/h N 12,9 C 22,2 C 11,3 km/h
08.08.2012 01:00 21,3 C 60 % 1020,7 hPa 0,0 l/m 0,5 km/h N 13,1 C 21,3 C 3,6 km/h
08.08.2012 02:00 20,0 C 66 % 1020,7 hPa 0,0 l/m 0,0 km/h N 13,4 C 20,0 C 0,0 km/h
08.08.2012 03:00 19,3 C 70 % 1020,9 hPa 0,0 l/m 0,0 km/h N 13,7 C 19,3 C 0,0 km/h
08.08.2012 04:00 19,2 C 73 % 1021,0 hPa 0,0 l/m 1,0 km/h N 14,1 C 19,2 C 3,6 km/h
08.08.2012 05:00 19,6 C 69 % 1021,3 hPa 0,0 l/m 3,1 km/h N 13,7 C 19,6 C 10,1 km/h
08.08.2012 06:00 19,4 C 68 % 1021,8 hPa 0,0 l/m 2,6 km/h N 13,4 C 19,4 C 10,1 km/h
08.08.2012 07:00 19,5 C 66 % 1022,0 hPa 0,0 l/m 2,7 km/h N 13,0 C 19,5 C 10,5 km/h
08.08.2012 08:00 19,6 C 65 % 1022,4 hPa 0,0 l/m 2,7 km/h N 12,8 C 19,6 C 10,1 km/h
08.08.2012 09:00 20,2 C 62 % 1022,8 hPa 0,0 l/m 3,6 km/h N 12,8 C 20,2 C 10,9 km/h
08.08.2012 10:00 20,7 C 62 % 1022,9 hPa 0,0 l/m 1,9 km/h N 13,1 C 20,7 C 8,0 km/h
08.08.2012 11:00 21,1 C 61 % 1022,8 hPa 0,0 l/m 0,2 km/h N 13,3 C 21,1 C 3,2 km/h
08.08.2012 12:00 22,7 C 59 % 1022,5 hPa 0,0 l/m 0,8 km/h N 14,2 C 22,7 C 7,7 km/h
08.08.2012 13:00 23,5 C 57 % 1022,1 hPa 0,0 l/m 0,8 km/h N 14,5 C 23,5 C 5,6 km/h
08.08.2012 14:00 23,1 C 56 % 1021,9 hPa 0,0 l/m 0,7 km/h N 13,9 C 23,1 C 5,2 km/h
08.08.2012 15:00 23,1 C 57 % 1021,6 hPa 0,0 l/m 0,3 km/h N 14,0 C 23,1 C 6,0 km/h
08.08.2012 16:00 23,2 C 57 % 1021,1 hPa 0,0 l/m 0,3 km/h N 14,1 C 23,2 C 5,6 km/h
08.08.2012 17:00 23,4 C 55 % 1020,6 hPa 0,0 l/m 2,0 km/h N 13,9 C 23,4 C 10,4 km/h
08.08.2012 18:00 24,0 C 54 % 1020,2 hPa 0,0 l/m 1,9 km/h N 14,0 C 24,0 C 10,1 km/h
08.08.2012 19:00 23,6 C 55 % 1020,3 hPa 0,0 l/m 1,7 km/h N 13,9 C 23,6 C 10,1 km/h
08.08.2012 20:00 21,8 C 61 % 1020,6 hPa 0,0 l/m 0,2 km/h N 13,8 C 21,8 C 2,0 km/h
08.08.2012 21:00 20,1 C 65 % 1021,5 hPa 0,0 l/m 1,5 km/h N 13,3 C 20,1 C 7,6 km/h
08.08.2012 22:00 19,5 C 64 % 1021,8 hPa 0,0 l/m 0,2 km/h N 12,4 C 19,5 C 2,4 km/h
08.08.2012 23:00 18,1 C 70 % 1022,0 hPa 0,0 l/m 0,0 km/h N 12,6 C 18,1 C 1,2 km/h
09.08.2012 00:00 17,5 C 74 % 1022,1 hPa 0,0 l/m 0,2 km/h N 12,7 C 17,5 C 3,2 km/h
09.08.2012 01:00 17,4 C 74 % 1022,1 hPa 0,0 l/m 0,1 km/h N 12,6 C 17,4 C 2,0 km/h
09.08.2012 02:00 17,2 C 73 % 1021,9 hPa 0,0 l/m 0,0 km/h N 12,3 C 17,2 C 0,4 km/h
09.08.2012 03:00 17,0 C 73 % 1021,8 hPa 0,0 l/m 0,0 km/h N 12,1 C 17,0 C 0,0 km/h
09.08.2012 04:00 15,9 C 75 % 1021,6 hPa 0,0 l/m 0,0 km/h N 11,5 C 15,9 C 0,0 km/h
09.08.2012 05:00 15,0 C 79 % 1021,8 hPa 0,0 l/m 0,0 km/h N 11,3 C 15,0 C 0,0 km/h
09.08.2012 06:00 15,4 C 79 % 1022,0 hPa 0,0 l/m 0,0 km/h N 11,8 C 15,4 C 0,8 km/h
09.08.2012 07:00 15,9 C 79 % 1022,0 hPa 0,0 l/m 0,0 km/h N 12,2 C 15,9 C 0,4 km/h
09.08.2012 08:00 17,9 C 76 % 1022,3 hPa 0,0 l/m 1,6 km/h N 13,5 C 17,9 C 6,4 km/h
09.08.2012 09:00 20,7 C 66 % 1022,3 hPa 0,0 l/m 5,2 km/h N 14,0 C 20,7 C 15,3 km/h
09.08.2012 10:00 22,1 C 57 % 1022,3 hPa 0,0 l/m 5,1 km/h N 13,2 C 22,1 C 17,7 km/h
09.08.2012 11:00 22,9 C 54 % 1022,2 hPa 0,0 l/m 5,6 km/h N 12,9 C 22,9 C 18,5 km/h
09.08.2012 12:00 23,2 C 50 % 1021,8 hPa 0,0 l/m 4,6 km/h N 12,2 C 23,2 C 16,1 km/h
09.08.2012 13:00 23,6 C 51 % 1021,5 hPa 0,0 l/m 4,1 km/h N 12,9 C 23,6 C 15,7 km/h
09.08.2012 14:00 24,1 C 48 % 1021,1 hPa 0,0 l/m 4,5 km/h N 12,2 C 24,0 C 20,1 km/h
09.08.2012 15:00 24,2 C 49 % 1020,5 hPa 0,0 l/m 4,3 km/h N 12,9 C 24,2 C 16,9 km/h
09.08.2012 16:00 24,2 C 49 % 1020,2 hPa 0,0 l/m 5,0 km/h N 12,6 C 24,2 C 17,3 km/h
09.08.2012 17:00 24,0 C 49 % 1020,0 hPa 0,0 l/m 6,2 km/h N 12,5 C 23,9 C 17,7 km/h
09.08.2012 18:00 23,9 C 48 % 1019,9 hPa 0,0 l/m 5,5 km/h N 12,2 C 23,9 C 15,7 km/h
09.08.2012 19:00 23,1 C 50 % 1019,9 hPa 0,0 l/m 1,8 km/h N 12,2 C 23,1 C 9,3 km/h
09.08.2012 20:00 22,2 C 51 % 1020,0 hPa 0,0 l/m 1,4 km/h N 11,6 C 22,2 C 8,1 km/h
09.08.2012 21:00 21,0 C 53 % 1020,8 hPa 0,0 l/m 1,7 km/h N 11,1 C 21,0 C 8,8 km/h
09.08.2012 22:00 20,0 C 57 % 1021,1 hPa 0,0 l/m 1,3 km/h N 11,2 C 20,0 C 6,8 km/h
09.08.2012 23:00 19,0 C 61 % 1021,4 hPa 0,0 l/m 1,0 km/h N 11,2 C 19,0 C 6,0 km/h
10.08.2012 00:00 17,6 C 66 % 1021,4 hPa 0,0 l/m 0,0 km/h N 11,1 C 17,6 C 1,6 km/h
10.08.2012 01:00 16,0 C 72 % 1021,3 hPa 0,0 l/m 0,0 km/h N 11,0 C 16,0 C 2,4 km/h
10.08.2012 02:00 15,3 C 76 % 1021,4 hPa 0,0 l/m 0,0 km/h N 11,0 C 15,3 C 0,8 km/h
10.08.2012 03:00 14,9 C 79 % 1021,4 hPa 0,0 l/m 0,2 km/h N 11,2 C 14,9 C 2,0 km/h
10.08.2012 04:00 15,5 C 78 % 1021,1 hPa 0,0 l/m 0,0 km/h N 11,7 C 15,5 C 0,4 km/h
10.08.2012 05:00 16,2 C 75 % 1021,1 hPa 0,0 l/m 0,3 km/h N 11,8 C 16,2 C 2,0 km/h
10.08.2012 06:00 16,4 C 74 % 1021,4 hPa 0,0 l/m 0,4 km/h N 11,8 C 16,4 C 4,0 km/h
10.08.2012 07:00 17,4 C 74 % 1021,6 hPa 0,0 l/m 1,9 km/h N 12,6 C 17,4 C 6,8 km/h
10.08.2012 08:00 18,2 C 71 % 1022,0 hPa 0,0 l/m 3,2 km/h N 12,9 C 18,2 C 9,6 km/h
10.08.2012 09:00 18,8 C 70 % 1022,3 hPa 0,0 l/m 2,6 km/h N 13,2 C 18,8 C 10,1 km/h
10.08.2012 10:00 18,8 C 70 % 1022,6 hPa 0,0 l/m 3,6 km/h N 13,2 C 18,8 C 8,8 km/h
10.08.2012 11:00 19,8 C 66 % 1022,3 hPa 0,0 l/m 4,4 km/h N 13,2 C 19,8 C 13,3 km/h
10.08.2012 12:00 20,7 C 61 % 1021,8 hPa 0,0 l/m 5,4 km/h N 13,0 C 20,7 C 13,3 km/h
10.08.2012 13:00 21,7 C 55 % 1021,3 hPa 0,0 l/m 5,2 km/h N 12,2 C 21,7 C 15,7 km/h
10.08.2012 14:00 22,2 C 53 % 1020,8 hPa 0,0 l/m 6,3 km/h N 12,2 C 22,1 C 16,1 km/h
10.08.2012 15:00 22,7 C 51 % 1020,3 hPa 0,0 l/m 7,1 km/h N 12,0 C 22,5 C 19,3 km/h
10.08.2012 16:00 22,7 C 50 % 1019,9 hPa 0,0 l/m 7,2 km/h N 11,8 C 22,5 C 18,1 km/h
10.08.2012 17:00 22,1 C 50 % 1019,8 hPa 0,0 l/m 6,4 km/h N 11,2 C 22,0 C 16,5 km/h
10.08.2012 18:00 21,8 C 51 % 1019,5 hPa 0,0 l/m 5,9 km/h N 11,1 C 21,7 C 16,9 km/h
10.08.2012 19:00 21,0 C 53 % 1019,4 hPa 0,0 l/m 3,4 km/h N 11,0 C 21,0 C 11,3 km/h
10.08.2012 20:00 19,4 C 58 % 1019,7 hPa 0,0 l/m 0,2 km/h N 10,9 C 19,4 C 3,6 km/h
10.08.2012 21:00 18,3 C 62 % 1020,2 hPa 0,0 l/m 0,6 km/h N 10,9 C 18,3 C 4,8 km/h
10.08.2012 22:00 18,6 C 60 % 1020,2 hPa 0,0 l/m 0,8 km/h N 10,7 C 18,6 C 6,0 km/h
10.08.2012 23:00 18,7 C 58 % 1020,2 hPa 0,0 l/m 1,5 km/h N 10,1 C 18,7 C 6,4 km/h
11.08.2012 00:00 18,2 C 58 % 1020,0 hPa 0,0 l/m 1,5 km/h N 9,7 C 18,2 C 7,6 km/h
11.08.2012 01:00 17,8 C 59 % 1019,5 hPa 0,0 l/m 0,8 km/h N 9,6 C 17,8 C 6,4 km/h
11.08.2012 02:00 17,5 C 60 % 1019,2 hPa 0,0 l/m 1,6 km/h N 9,6 C 17,5 C 7,2 km/h
11.08.2012 03:00 17,2 C 61 % 1018,8 hPa 0,0 l/m 2,8 km/h N 9,5 C 17,2 C 9,3 km/h
11.08.2012 04:00 16,8 C 63 % 1018,8 hPa 0,0 l/m 5,6 km/h N 9,8 C 16,7 C 17,7 km/h
11.08.2012 05:00 16,2 C 65 % 1018,8 hPa 0,0 l/m 5,2 km/h N 9,6 C 16,2 C 16,9 km/h
11.08.2012 06:00 16,0 C 65 % 1018,8 hPa 0,0 l/m 3,4 km/h N 9,4 C 16,0 C 11,3 km/h
11.08.2012 07:00 15,8 C 64 % 1018,9 hPa 0,0 l/m 3,2 km/h N 8,9 C 15,8 C 12,1 km/h
11.08.2012 08:00 16,1 C 63 % 1019,0 hPa 0,0 l/m 5,3 km/h N 9,1 C 16,1 C 16,5 km/h
11.08.2012 09:00 16,5 C 62 % 1019,0 hPa 0,0 l/m 8,3 km/h N 9,3 C 15,6 C 22,5 km/h
11.08.2012 10:00 16,3 C 66 % 1019,2 hPa 0,0 l/m 7,9 km/h N 9,9 C 15,5 C 20,5 km/h
11.08.2012 11:00 15,3 C 76 % 1019,5 hPa 0,5 l/m 6,9 km/h N 11,0 C 14,8 C 21,3 km/h
11.08.2012 12:00 15,4 C 79 % 1019,3 hPa 0,0 l/m 10,2 km/h N 11,7 C 13,5 C 24,5 km/h
11.08.2012 13:00 17,1 C 72 % 1019,0 hPa 0,3 l/m 11,3 km/h N 11,9 C 15,0 C 26,2 km/h
11.08.2012 14:00 16,0 C 77 % 1019,1 hPa 0,0 l/m 7,2 km/h N 12,0 C 15,5 C 19,7 km/h
11.08.2012 15:00 15,4 C 81 % 1019,1 hPa 3,9 l/m 5,8 km/h N 12,0 C 15,1 C 14,5 km/h
11.08.2012 16:00 16,7 C 75 % 1019,0 hPa 0,0 l/m 7,3 km/h N 12,1 C 16,1 C 19,3 km/h
11.08.2012 17:00 17,0 C 70 % 1018,8 hPa 0,0 l/m 7,7 km/h N 11,5 C 16,3 C 21,3 km/h
11.08.2012 18:00 17,4 C 67 % 1018,8 hPa 0,3 l/m 8,3 km/h N 11,1 C 16,5 C 22,1 km/h
11.08.2012 19:00 14,4 C 80 % 1019,2 hPa 0,5 l/m 3,8 km/h N 10,9 C 14,3 C 12,9 km/h
11.08.2012 20:00 13,8 C 81 % 1019,3 hPa 0,0 l/m 0,6 km/h N 10,5 C 13,8 C 4,4 km/h
11.08.2012 21:00 13,3 C 82 % 1019,4 hPa 0,0 l/m 0,0 km/h N 10,2 C 13,3 C 2,0 km/h
11.08.2012 22:00 13,6 C 81 % 1019,4 hPa 0,0 l/m 3,5 km/h N 10,3 C 13,6 C 12,1 km/h
11.08.2012 23:00 13,8 C 78 % 1019,4 hPa 0,0 l/m 2,5 km/h N 10,0 C 13,8 C 10,5 km/h
12.08.2012 00:00 13,8 C 77 % 1019,0 hPa 0,0 l/m 3,7 km/h N 9,8 C 13,8 C 10,5 km/h
12.08.2012 01:00 13,7 C 77 % 1018,7 hPa 0,0 l/m 3,3 km/h N 9,8 C 13,7 C 10,5 km/h
12.08.2012 02:00 14,0 C 77 % 1018,4 hPa 0,0 l/m 5,2 km/h N 9,9 C 14,0 C 14,5 km/h
12.08.2012 03:00 13,7 C 77 % 1018,2 hPa 0,0 l/m 4,5 km/h N 9,6 C 13,7 C 12,5 km/h
12.08.2012 04:00 13,3 C 78 % 1017,9 hPa 0,0 l/m 4,4 km/h N 9,6 C 13,3 C 12,9 km/h
12.08.2012 05:00 13,0 C 79 % 1017,8 hPa 0,0 l/m 4,6 km/h N 9,4 C 13,0 C 11,7 km/h
12.08.2012 06:00 13,3 C 80 % 1017,8 hPa 0,0 l/m 3,9 km/h N 9,8 C 13,3 C 14,1 km/h
12.08.2012 07:00 14,0 C 79 % 1017,8 hPa 0,0 l/m 5,4 km/h N 10,3 C 14,0 C 16,9 km/h
12.08.2012 08:00 15,2 C 77 % 1017,8 hPa 0,0 l/m 4,9 km/h N 11,1 C 15,2 C 13,7 km/h
12.08.2012 09:00 16,3 C 74 % 1017,7 hPa 0,0 l/m 4,1 km/h N 11,6 C 16,3 C 12,1 km/h
12.08.2012 10:00 17,4 C 70 % 1017,6 hPa 0,0 l/m 4,0 km/h N 11,8 C 17,4 C 10,1 km/h
12.08.2012 11:00 18,0 C 69 % 1017,3 hPa 0,0 l/m 3,1 km/h N 12,1 C 18,0 C 10,1 km/h
12.08.2012 12:00 19,3 C 62 % 1016,8 hPa 0,0 l/m 4,0 km/h N 11,7 C 19,3 C 12,9 km/h
12.08.2012 13:00 20,3 C 60 % 1016,3 hPa 0,0 l/m 3,8 km/h N 12,1 C 20,3 C 12,1 km/h
12.08.2012 14:00 20,9 C 55 % 1016,0 hPa 0,0 l/m 3,0 km/h N 11,6 C 20,9 C 10,5 km/h
12.08.2012 15:00 20,8 C 53 % 1015,5 hPa 0,0 l/m 2,9 km/h N 10,9 C 20,8 C 10,5 km/h
12.08.2012 16:00 21,4 C 52 % 1015,0 hPa 0,0 l/m 2,9 km/h N 11,1 C 21,4 C 10,1 km/h
12.08.2012 17:00 21,9 C 48 % 1014,7 hPa 0,0 l/m 2,6 km/h N 10,5 C 21,9 C 9,7 km/h
12.08.2012 18:00 22,2 C 47 % 1014,6 hPa 0,0 l/m 4,4 km/h N 10,3 C 22,2 C 13,3 km/h
12.08.2012 19:00 21,5 C 48 % 1014,7 hPa 0,0 l/m 2,7 km/h N 9,9 C 21,5 C 8,8 km/h
12.08.2012 20:00 19,5 C 55 % 1014,9 hPa 0,0 l/m 0,3 km/h N 10,1 C 19,5 C 3,2 km/h
12.08.2012 21:00 16,7 C 64 % 1015,4 hPa 0,0 l/m 0,0 km/h N 9,8 C 16,7 C 0,0 km/h
12.08.2012 22:00 14,5 C 73 % 1015,9 hPa 0,0 l/m 0,0 km/h N 9,7 C 14,5 C 0,4 km/h
12.08.2012 23:00 13,4 C 77 % 1016,2 hPa 0,0 l/m 0,0 km/h N 9,4 C 13,4 C 0,8 km/h
Min-Datum _ 12.08.12 09.08.12 06.08.12 - 06.08.12 - 11.08.12 12.08.12 06.08.12
_ Min-Zeit 05:30 14:00 20:15 - 00:00 - 07:15 05:30 00:00
Minimum _ 12,9 C 45 % 1005,5 hPa - 0,0 km/h - 8,7 C 12,9 C 0,0 km/h
Max-Datum _ 06.08.12 11.08.12 08.08.12 11.08.12 06.08.12 - 06.08.12 06.08.12 06.08.12
_ Max-Zeit 18:30 15:30 09:30 15:00 23:15 - 19:15 18:30 23:00
Maximum _ 31,9 C 82 % 1022,9 hPa 3,9 l/m 24,3 km/h
N
- 22,1 C 31,9 C 54,7 km/h
N
Durchschnitt _ 20,1 C 65 % 1018,3 hPa #5,5 l/m 3,5 km/h N 13,0 C 19,9 C 11,7 km/h